sensor_id;sensor_type;location;lat;lon;timestamp;P1;durP1;ratioP1;P2;durP2;ratioP2
19887;SDS011;10106;51.332;12.336;2022-07-18T00:00:04;5.83;;;3.10;;
19887;SDS011;10106;51.332;12.336;2022-07-18T00:02:32;5.23;;;3.10;;
19887;SDS011;10106;51.332;12.336;2022-07-18T00:04:57;4.00;;;2.83;;
19887;SDS011;10106;51.332;12.336;2022-07-18T00:07:23;3.60;;;2.57;;
19887;SDS011;10106;51.332;12.336;2022-07-18T00:09:49;5.10;;;3.17;;
19887;SDS011;10106;51.332;12.336;2022-07-18T00:12:14;5.10;;;2.60;;
19887;SDS011;10106;51.332;12.336;2022-07-18T00:14:40;5.50;;;2.20;;
19887;SDS011;10106;51.332;12.336;2022-07-18T00:17:06;8.90;;;3.00;;
19887;SDS011;10106;51.332;12.336;2022-07-18T00:19:32;4.17;;;2.50;;
19887;SDS011;10106;51.332;12.336;2022-07-18T00:21:58;2.83;;;2.17;;
19887;SDS011;10106;51.332;12.336;2022-07-18T00:24:24;4.47;;;2.60;;
19887;SDS011;10106;51.332;12.336;2022-07-18T00:26:50;7.70;;;3.03;;
19887;SDS011;10106;51.332;12.336;2022-07-18T00:29:15;4.73;;;2.67;;
19887;SDS011;10106;51.332;12.336;2022-07-18T00:31:41;4.83;;;2.60;;
19887;SDS011;10106;51.332;12.336;2022-07-18T00:34:06;3.27;;;2.50;;
19887;SDS011;10106;51.332;12.336;2022-07-18T00:36:32;5.83;;;2.57;;
19887;SDS011;10106;51.332;12.336;2022-07-18T00:38:58;2.57;;;1.90;;
19887;SDS011;10106;51.332;12.336;2022-07-18T00:41:24;3.10;;;2.77;;
19887;SDS011;10106;51.332;12.336;2022-07-18T00:43:50;2.57;;;2.00;;
19887;SDS011;10106;51.332;12.336;2022-07-18T00:46:20;8.30;;;3.07;;
19887;SDS011;10106;51.332;12.336;2022-07-18T00:48:47;4.03;;;2.13;;
19887;SDS011;10106;51.332;12.336;2022-07-18T00:51:12;4.23;;;2.30;;
19887;SDS011;10106;51.332;12.336;2022-07-18T00:53:38;13.50;;;2.57;;
19887;SDS011;10106;51.332;12.336;2022-07-18T00:56:04;5.33;;;2.63;;
19887;SDS011;10106;51.332;12.336;2022-07-18T00:58:30;2.20;;;2.00;;
19887;SDS011;10106;51.332;12.336;2022-07-18T01:00:56;6.13;;;2.70;;
19887;SDS011;10106;51.332;12.336;2022-07-18T01:03:41;6.37;;;2.30;;
19887;SDS011;10106;51.332;12.336;2022-07-18T01:06:06;13.87;;;3.10;;
19887;SDS011;10106;51.332;12.336;2022-07-18T01:08:32;5.33;;;3.03;;
19887;SDS011;10106;51.332;12.336;2022-07-18T01:10:58;4.40;;;2.67;;
19887;SDS011;10106;51.332;12.336;2022-07-18T01:13:24;4.17;;;2.83;;
19887;SDS011;10106;51.332;12.336;2022-07-18T01:15:50;5.70;;;2.73;;
19887;SDS011;10106;51.332;12.336;2022-07-18T01:18:15;3.87;;;2.77;;
19887;SDS011;10106;51.332;12.336;2022-07-18T01:20:42;5.10;;;2.60;;
19887;SDS011;10106;51.332;12.336;2022-07-18T01:23:08;6.80;;;3.30;;
19887;SDS011;10106;51.332;12.336;2022-07-18T01:25:33;9.30;;;2.77;;
19887;SDS011;10106;51.332;12.336;2022-07-18T01:27:59;5.77;;;2.90;;
19887;SDS011;10106;51.332;12.336;2022-07-18T01:30:25;5.13;;;3.10;;
19887;SDS011;10106;51.332;12.336;2022-07-18T01:32:58;6.60;;;3.27;;
19887;SDS011;10106;51.332;12.336;2022-07-18T01:35:25;4.57;;;2.90;;
19887;SDS011;10106;51.332;12.336;2022-07-18T01:37:55;6.10;;;3.40;;
19887;SDS011;10106;51.332;12.336;2022-07-18T01:40:23;5.73;;;3.50;;
19887;SDS011;10106;51.332;12.336;2022-07-18T01:42:48;3.87;;;3.00;;
19887;SDS011;10106;51.332;12.336;2022-07-18T01:45:14;4.63;;;3.40;;
19887;SDS011;10106;51.332;12.336;2022-07-18T01:47:40;7.90;;;3.63;;
19887;SDS011;10106;51.332;12.336;2022-07-18T01:50:07;7.43;;;4.07;;
19887;SDS011;10106;51.332;12.336;2022-07-18T01:52:34;6.37;;;3.47;;
19887;SDS011;10106;51.332;12.336;2022-07-18T01:55:00;6.23;;;3.27;;
19887;SDS011;10106;51.332;12.336;2022-07-18T01:57:26;6.93;;;3.30;;
19887;SDS011;10106;51.332;12.336;2022-07-18T01:59:52;6.10;;;3.60;;
19887;SDS011;10106;51.332;12.336;2022-07-18T02:02:17;3.47;;;3.00;;
19887;SDS011;10106;51.332;12.336;2022-07-18T02:04:43;7.03;;;3.10;;
19887;SDS011;10106;51.332;12.336;2022-07-18T02:07:24;10.90;;;3.60;;
19887;SDS011;10106;51.332;12.336;2022-07-18T02:09:51;5.33;;;3.77;;
19887;SDS011;10106;51.332;12.336;2022-07-18T02:12:16;6.97;;;2.70;;
19887;SDS011;10106;51.332;12.336;2022-07-18T02:14:42;3.17;;;2.40;;
19887;SDS011;10106;51.332;12.336;2022-07-18T02:17:08;4.70;;;3.00;;
19887;SDS011;10106;51.332;12.336;2022-07-18T02:19:33;8.83;;;2.70;;
19887;SDS011;10106;51.332;12.336;2022-07-18T02:21:59;4.63;;;2.80;;
19887;SDS011;10106;51.332;12.336;2022-07-18T02:24:24;3.33;;;2.87;;
19887;SDS011;10106;51.332;12.336;2022-07-18T02:26:50;4.60;;;2.37;;
19887;SDS011;10106;51.332;12.336;2022-07-18T02:29:16;3.20;;;2.40;;
19887;SDS011;10106;51.332;12.336;2022-07-18T02:31:41;8.23;;;3.20;;
19887;SDS011;10106;51.332;12.336;2022-07-18T02:34:07;8.13;;;2.77;;
19887;SDS011;10106;51.332;12.336;2022-07-18T02:36:38;2.73;;;1.90;;
19887;SDS011;10106;51.332;12.336;2022-07-18T02:39:04;2.27;;;1.90;;
19887;SDS011;10106;51.332;12.336;2022-07-18T02:41:31;4.70;;;3.13;;
19887;SDS011;10106;51.332;12.336;2022-07-18T02:43:57;2.13;;;1.97;;
19887;SDS011;10106;51.332;12.336;2022-07-18T02:46:23;2.43;;;2.10;;
19887;SDS011;10106;51.332;12.336;2022-07-18T02:48:49;3.00;;;2.30;;
19887;SDS011;10106;51.332;12.336;2022-07-18T02:51:15;5.90;;;2.37;;
19887;SDS011;10106;51.332;12.336;2022-07-18T02:53:40;2.10;;;1.83;;
19887;SDS011;10106;51.332;12.336;2022-07-18T02:56:06;8.80;;;2.40;;
19887;SDS011;10106;51.332;12.336;2022-07-18T02:58:31;2.03;;;1.90;;
19887;SDS011;10106;51.332;12.336;2022-07-18T03:00:57;3.33;;;2.13;;
19887;SDS011;10106;51.332;12.336;2022-07-18T03:03:23;4.23;;;2.03;;
19887;SDS011;10106;51.332;12.336;2022-07-18T03:05:49;1.97;;;1.87;;
19887;SDS011;10106;51.332;12.336;2022-07-18T03:08:15;3.07;;;1.83;;
19887;SDS011;10106;51.332;12.336;2022-07-18T03:10:41;2.10;;;1.90;;
19887;SDS011;10106;51.332;12.336;2022-07-18T03:13:06;3.27;;;2.30;;
19887;SDS011;10106;51.332;12.336;2022-07-18T03:15:32;2.30;;;2.10;;
19887;SDS011;10106;51.332;12.336;2022-07-18T03:17:58;5.13;;;2.00;;
19887;SDS011;10106;51.332;12.336;2022-07-18T03:20:24;2.10;;;1.90;;
19887;SDS011;10106;51.332;12.336;2022-07-18T03:22:50;4.00;;;2.23;;
19887;SDS011;10106;51.332;12.336;2022-07-18T03:25:15;2.00;;;1.80;;
19887;SDS011;10106;51.332;12.336;2022-07-18T03:27:41;3.27;;;2.07;;
19887;SDS011;10106;51.332;12.336;2022-07-18T03:30:07;3.40;;;2.47;;
19887;SDS011;10106;51.332;12.336;2022-07-18T03:32:33;4.10;;;2.00;;
19887;SDS011;10106;51.332;12.336;2022-07-18T03:34:58;3.23;;;2.70;;
19887;SDS011;10106;51.332;12.336;2022-07-18T03:37:24;2.30;;;2.10;;
19887;SDS011;10106;51.332;12.336;2022-07-18T03:39:49;6.73;;;2.50;;
19887;SDS011;10106;51.332;12.336;2022-07-18T03:42:15;3.10;;;2.10;;
19887;SDS011;10106;51.332;12.336;2022-07-18T03:44:41;2.57;;;2.37;;
19887;SDS011;10106;51.332;12.336;2022-07-18T03:47:06;5.23;;;2.13;;
19887;SDS011;10106;51.332;12.336;2022-07-18T03:49:32;2.00;;;1.90;;
19887;SDS011;10106;51.332;12.336;2022-07-18T03:51:57;3.17;;;2.47;;
19887;SDS011;10106;51.332;12.336;2022-07-18T03:54:23;5.10;;;2.43;;
19887;SDS011;10106;51.332;12.336;2022-07-18T03:56:49;3.93;;;2.47;;
19887;SDS011;10106;51.332;12.336;2022-07-18T03:59:15;2.37;;;2.10;;
19887;SDS011;10106;51.332;12.336;2022-07-18T04:01:41;4.53;;;2.47;;
19887;SDS011;10106;51.332;12.336;2022-07-18T04:04:06;6.33;;;2.77;;
19887;SDS011;10106;51.332;12.336;2022-07-18T04:06:32;3.83;;;2.53;;
19887;SDS011;10106;51.332;12.336;2022-07-18T04:08:58;5.10;;;2.33;;
19887;SDS011;10106;51.332;12.336;2022-07-18T04:11:23;3.57;;;2.83;;
19887;SDS011;10106;51.332;12.336;2022-07-18T04:13:52;3.73;;;2.10;;
19887;SDS011;10106;51.332;12.336;2022-07-18T04:16:19;7.30;;;2.70;;
19887;SDS011;10106;51.332;12.336;2022-07-18T04:18:45;3.63;;;2.40;;
19887;SDS011;10106;51.332;12.336;2022-07-18T04:21:11;7.10;;;2.77;;
19887;SDS011;10106;51.332;12.336;2022-07-18T04:23:37;7.43;;;2.20;;
19887;SDS011;10106;51.332;12.336;2022-07-18T04:26:03;4.07;;;2.60;;
19887;SDS011;10106;51.332;12.336;2022-07-18T04:28:29;3.37;;;2.70;;
19887;SDS011;10106;51.332;12.336;2022-07-18T04:30:55;4.53;;;2.87;;
19887;SDS011;10106;51.332;12.336;2022-07-18T04:33:21;4.60;;;2.37;;
19887;SDS011;10106;51.332;12.336;2022-07-18T04:35:48;3.67;;;2.40;;
19887;SDS011;10106;51.332;12.336;2022-07-18T04:38:14;6.03;;;2.63;;
19887;SDS011;10106;51.332;12.336;2022-07-18T04:40:40;4.37;;;2.87;;
19887;SDS011;10106;51.332;12.336;2022-07-18T04:43:06;6.37;;;2.80;;
19887;SDS011;10106;51.332;12.336;2022-07-18T04:45:32;2.70;;;2.45;;
19887;SDS011;10106;51.332;12.336;2022-07-18T04:47:59;3.25;;;2.00;;
19887;SDS011;10106;51.332;12.336;2022-07-18T04:50:25;7.68;;;2.75;;
19887;SDS011;10106;51.332;12.336;2022-07-18T04:52:51;3.80;;;2.58;;
19887;SDS011;10106;51.332;12.336;2022-07-18T04:55:18;9.65;;;2.85;;
19887;SDS011;10106;51.332;12.336;2022-07-18T04:57:45;2.53;;;2.33;;
19887;SDS011;10106;51.332;12.336;2022-07-18T05:07:52;5.22;;;2.67;;
19887;SDS011;10106;51.332;12.336;2022-07-18T05:10:18;6.53;;;2.58;;
19887;SDS011;10106;51.332;12.336;2022-07-18T05:12:46;3.50;;;2.47;;
19887;SDS011;10106;51.332;12.336;2022-07-18T05:15:15;3.38;;;2.45;;
19887;SDS011;10106;51.332;12.336;2022-07-18T05:17:42;3.45;;;2.15;;
19887;SDS011;10106;51.332;12.336;2022-07-18T05:20:09;2.45;;;2.17;;
19887;SDS011;10106;51.332;12.336;2022-07-18T05:22:40;3.95;;;2.78;;
19887;SDS011;10106;51.332;12.336;2022-07-18T05:25:06;4.97;;;2.45;;
19887;SDS011;10106;51.332;12.336;2022-07-18T05:27:33;2.22;;;2.03;;
19887;SDS011;10106;51.332;12.336;2022-07-18T05:29:59;6.07;;;2.53;;
19887;SDS011;10106;51.332;12.336;2022-07-18T05:32:26;7.32;;;2.67;;
19887;SDS011;10106;51.332;12.336;2022-07-18T05:34:52;2.15;;;1.95;;
19887;SDS011;10106;51.332;12.336;2022-07-18T05:37:18;4.28;;;3.13;;
19887;SDS011;10106;51.332;12.336;2022-07-18T05:39:43;2.42;;;2.22;;
19887;SDS011;10106;51.332;12.336;2022-07-18T05:42:09;2.38;;;2.17;;
19887;SDS011;10106;51.332;12.336;2022-07-18T05:44:35;4.82;;;3.08;;
19887;SDS011;10106;51.332;12.336;2022-07-18T05:47:00;4.97;;;2.10;;
19887;SDS011;10106;51.332;12.336;2022-07-18T05:49:26;2.85;;;2.17;;
19887;SDS011;10106;51.332;12.336;2022-07-18T05:51:52;4.85;;;2.30;;
19887;SDS011;10106;51.332;12.336;2022-07-18T05:54:18;4.43;;;2.17;;
19887;SDS011;10106;51.332;12.336;2022-07-18T05:56:48;3.95;;;2.63;;
19887;SDS011;10106;51.332;12.336;2022-07-18T05:59:15;7.20;;;2.08;;
19887;SDS011;10106;51.332;12.336;2022-07-18T06:01:41;8.38;;;2.80;;
19887;SDS011;10106;51.332;12.336;2022-07-18T06:04:07;2.33;;;2.10;;
19887;SDS011;10106;51.332;12.336;2022-07-18T06:06:33;1.92;;;1.73;;
19887;SDS011;10106;51.332;12.336;2022-07-18T06:08:58;5.43;;;2.58;;
19887;SDS011;10106;51.332;12.336;2022-07-18T06:11:24;2.35;;;2.15;;
19887;SDS011;10106;51.332;12.336;2022-07-18T06:13:49;5.32;;;1.85;;
19887;SDS011;10106;51.332;12.336;2022-07-18T06:16:15;6.18;;;2.22;;
19887;SDS011;10106;51.332;12.336;2022-07-18T06:18:41;3.53;;;2.40;;
19887;SDS011;10106;51.332;12.336;2022-07-18T06:21:06;2.35;;;2.13;;
19887;SDS011;10106;51.332;12.336;2022-07-18T06:23:32;3.67;;;1.92;;
19887;SDS011;10106;51.332;12.336;2022-07-18T06:26:00;3.55;;;1.88;;
19887;SDS011;10106;51.332;12.336;2022-07-18T06:28:26;2.90;;;2.13;;
19887;SDS011;10106;51.332;12.336;2022-07-18T06:30:53;3.42;;;2.10;;
19887;SDS011;10106;51.332;12.336;2022-07-18T06:33:19;4.90;;;1.70;;
19887;SDS011;10106;51.332;12.336;2022-07-18T06:35:45;2.13;;;1.87;;
19887;SDS011;10106;51.332;12.336;2022-07-18T06:38:11;4.28;;;2.00;;
19887;SDS011;10106;51.332;12.336;2022-07-18T06:40:38;1.73;;;1.63;;
19887;SDS011;10106;51.332;12.336;2022-07-18T06:43:03;2.15;;;1.90;;
19887;SDS011;10106;51.332;12.336;2022-07-18T06:45:29;2.43;;;2.00;;
19887;SDS011;10106;51.332;12.336;2022-07-18T06:47:55;3.40;;;2.00;;
19887;SDS011;10106;51.332;12.336;2022-07-18T06:50:21;4.53;;;2.20;;
19887;SDS011;10106;51.332;12.336;2022-07-18T06:52:46;8.70;;;2.50;;
19887;SDS011;10106;51.332;12.336;2022-07-18T06:55:12;4.30;;;2.37;;
19887;SDS011;10106;51.332;12.336;2022-07-18T06:57:39;4.25;;;2.10;;
19887;SDS011;10106;51.332;12.336;2022-07-18T07:00:05;2.92;;;2.10;;
19887;SDS011;10106;51.332;12.336;2022-07-18T07:02:40;3.40;;;1.80;;
19887;SDS011;10106;51.332;12.336;2022-07-18T07:05:08;4.13;;;1.90;;
19887;SDS011;10106;51.332;12.336;2022-07-18T07:07:34;2.45;;;2.13;;
19887;SDS011;10106;51.332;12.336;2022-07-18T07:10:00;4.65;;;2.65;;
19887;SDS011;10106;51.332;12.336;2022-07-18T07:12:26;499.20;;;459.43;;
19887;SDS011;10106;51.332;12.336;2022-07-18T07:14:51;767.97;;;709.73;;
19887;SDS011;10106;51.332;12.336;2022-07-18T07:17:17;306.52;;;281.25;;
19887;SDS011;10106;51.332;12.336;2022-07-18T07:19:43;949.53;;;879.22;;
19887;SDS011;10106;51.332;12.336;2022-07-18T07:22:09;1200.40;;;999.90;;
19887;SDS011;10106;51.332;12.336;2022-07-18T07:24:34;1308.50;;;999.90;;
19887;SDS011;10106;51.332;12.336;2022-07-18T07:27:01;1313.47;;;999.90;;
19887;SDS011;10106;51.332;12.336;2022-07-18T07:29:27;1279.33;;;999.90;;
19887;SDS011;10106;51.332;12.336;2022-07-18T07:31:53;1289.00;;;999.90;;
19887;SDS011;10106;51.332;12.336;2022-07-18T07:34:18;1328.63;;;999.90;;
19887;SDS011;10106;51.332;12.336;2022-07-18T07:36:44;1340.87;;;999.90;;
19887;SDS011;10106;51.332;12.336;2022-07-18T07:39:09;1204.10;;;999.90;;
19887;SDS011;10106;51.332;12.336;2022-07-18T07:41:35;1346.70;;;999.90;;
19887;SDS011;10106;51.332;12.336;2022-07-18T07:44:01;782.90;;;717.67;;
19887;SDS011;10106;51.332;12.336;2022-07-18T07:46:26;1329.53;;;999.90;;
19887;SDS011;10106;51.332;12.336;2022-07-18T07:48:52;1344.10;;;999.90;;
19887;SDS011;10106;51.332;12.336;2022-07-18T07:51:17;1340.33;;;999.90;;
19887;SDS011;10106;51.332;12.336;2022-07-18T07:53:43;1.50;;;1.40;;
19887;SDS011;10106;51.332;12.336;2022-07-18T07:56:08;1324.43;;;999.90;;
19887;SDS011;10106;51.332;12.336;2022-07-18T07:58:35;1046.35;;;965.13;;
19887;SDS011;10106;51.332;12.336;2022-07-18T08:01:01;1341.45;;;999.90;;
19887;SDS011;10106;51.332;12.336;2022-07-18T08:03:27;1342.60;;;999.90;;
19887;SDS011;10106;51.332;12.336;2022-07-18T08:05:52;1335.57;;;999.90;;
19887;SDS011;10106;51.332;12.336;2022-07-18T08:08:18;1327.37;;;999.90;;
19887;SDS011;10106;51.332;12.336;2022-07-18T08:10:44;1355.20;;;999.90;;
19887;SDS011;10106;51.332;12.336;2022-07-18T08:13:10;1245.50;;;999.90;;
19887;SDS011;10106;51.332;12.336;2022-07-18T08:15:37;1352.63;;;999.90;;
19887;SDS011;10106;51.332;12.336;2022-07-18T08:18:03;1350.72;;;999.90;;
19887;SDS011;10106;51.332;12.336;2022-07-18T08:20:29;1348.43;;;999.90;;
19887;SDS011;10106;51.332;12.336;2022-07-18T08:23:00;1361.57;;;999.90;;
19887;SDS011;10106;51.332;12.336;2022-07-18T08:25:27;1363.68;;;999.90;;
19887;SDS011;10106;51.332;12.336;2022-07-18T08:27:54;1377.20;;;999.90;;
19887;SDS011;10106;51.332;12.336;2022-07-18T08:30:20;1363.10;;;999.90;;
19887;SDS011;10106;51.332;12.336;2022-07-18T08:32:46;1348.15;;;999.90;;
19887;SDS011;10106;51.332;12.336;2022-07-18T08:35:12;1335.95;;;999.90;;
19887;SDS011;10106;51.332;12.336;2022-07-18T08:37:38;1346.50;;;999.90;;
19887;SDS011;10106;51.332;12.336;2022-07-18T08:40:05;3.40;;;2.00;;
19887;SDS011;10106;51.332;12.336;2022-07-18T08:42:32;3.87;;;2.20;;
19887;SDS011;10106;51.332;12.336;2022-07-18T08:44:59;3.57;;;2.17;;
19887;SDS011;10106;51.332;12.336;2022-07-18T08:47:26;114.60;;;105.50;;
19887;SDS011;10106;51.332;12.336;2022-07-18T08:49:54;2.75;;;1.45;;
19887;SDS011;10106;51.332;12.336;2022-07-18T08:52:20;2.00;;;1.60;;
19887;SDS011;10106;51.332;12.336;2022-07-18T08:54:46;2.50;;;1.30;;
19887;SDS011;10106;51.332;12.336;2022-07-18T08:57:16;1.55;;;1.10;;
19887;SDS011;10106;51.332;12.336;2022-07-18T08:59:42;3.20;;;1.30;;
19887;SDS011;10106;51.332;12.336;2022-07-18T09:02:08;1.50;;;1.30;;
19887;SDS011;10106;51.332;12.336;2022-07-18T09:04:37;1.83;;;1.30;;
19887;SDS011;10106;51.332;12.336;2022-07-18T09:07:04;2.30;;;1.23;;
19887;SDS011;10106;51.332;12.336;2022-07-18T09:09:33;2.20;;;1.70;;
19887;SDS011;10106;51.332;12.336;2022-07-18T09:12:04;3.03;;;1.30;;
19887;SDS011;10106;51.332;12.336;2022-07-18T09:17:08;1.40;;;1.20;;
19887;SDS011;10106;51.332;12.336;2022-07-18T09:19:35;1.30;;;1.20;;
19887;SDS011;10106;51.332;12.336;2022-07-18T09:32:43;1.58;;;1.20;;
19887;SDS011;10106;51.332;12.336;2022-07-18T09:35:32;3.00;;;1.30;;
19887;SDS011;10106;51.332;12.336;2022-07-18T09:40:30;1.50;;;1.40;;
19887;SDS011;10106;51.332;12.336;2022-07-18T09:42:58;1.42;;;1.30;;
19887;SDS011;10106;51.332;12.336;2022-07-18T09:45:30;2.55;;;1.30;;
19887;SDS011;10106;51.332;12.336;2022-07-18T09:47:58;1.90;;;1.50;;
19887;SDS011;10106;51.332;12.336;2022-07-18T09:50:36;5.10;;;1.70;;
19887;SDS011;10106;51.332;12.336;2022-07-18T09:53:32;4.20;;;2.05;;
19887;SDS011;10106;51.332;12.336;2022-07-18T09:56:03;3.75;;;1.90;;
19887;SDS011;10106;51.332;12.336;2022-07-18T09:58:32;2.00;;;1.63;;
19887;SDS011;10106;51.332;12.336;2022-07-18T10:01:03;2.28;;;1.60;;
19887;SDS011;10106;51.332;12.336;2022-07-18T10:03:30;4.75;;;1.80;;
19887;SDS011;10106;51.332;12.336;2022-07-18T10:05:57;2.50;;;1.60;;
19887;SDS011;10106;51.332;12.336;2022-07-18T10:08:25;3.60;;;1.80;;
19887;SDS011;10106;51.332;12.336;2022-07-18T10:10:52;3.85;;;1.90;;
19887;SDS011;10106;51.332;12.336;2022-07-18T10:13:20;3.20;;;2.20;;
19887;SDS011;10106;51.332;12.336;2022-07-18T10:15:47;3.70;;;2.28;;
19887;SDS011;10106;51.332;12.336;2022-07-18T10:18:15;3.90;;;2.28;;
19887;SDS011;10106;51.332;12.336;2022-07-18T10:20:53;3.07;;;1.97;;
19887;SDS011;10106;51.332;12.336;2022-07-18T10:23:26;3.58;;;1.98;;
19887;SDS011;10106;51.332;12.336;2022-07-18T10:26:14;2.10;;;1.90;;
19887;SDS011;10106;51.332;12.336;2022-07-18T10:33:47;2.55;;;1.98;;
19887;SDS011;10106;51.332;12.336;2022-07-18T10:36:17;2.53;;;2.30;;
19887;SDS011;10106;51.332;12.336;2022-07-18T16:43:41;11.15;;;4.03;;
19887;SDS011;10106;51.332;12.336;2022-07-18T16:46:07;2.42;;;1.60;;
19887;SDS011;10106;51.332;12.336;2022-07-18T16:48:34;1.58;;;1.20;;
19887;SDS011;10106;51.332;12.336;2022-07-18T16:51:00;1.60;;;1.50;;
19887;SDS011;10106;51.332;12.336;2022-07-18T16:53:26;1.50;;;1.40;;
19887;SDS011;10106;51.332;12.336;2022-07-18T16:55:53;4.70;;;1.50;;
19887;SDS011;10106;51.332;12.336;2022-07-18T16:58:19;2.00;;;1.73;;
19887;SDS011;10106;51.332;12.336;2022-07-18T17:00:44;2.50;;;2.30;;
19887;SDS011;10106;51.332;12.336;2022-07-18T17:03:10;1.70;;;1.60;;
19887;SDS011;10106;51.332;12.336;2022-07-18T17:05:36;1.30;;;1.20;;
19887;SDS011;10106;51.332;12.336;2022-07-18T17:08:02;5.55;;;1.52;;
19887;SDS011;10106;51.332;12.336;2022-07-18T17:10:29;2.47;;;1.73;;
19887;SDS011;10106;51.332;12.336;2022-07-18T17:12:55;2.65;;;1.33;;
19887;SDS011;10106;51.332;12.336;2022-07-18T17:15:21;2.63;;;1.63;;
19887;SDS011;10106;51.332;12.336;2022-07-18T17:17:47;1.65;;;1.55;;
19887;SDS011;10106;51.332;12.336;2022-07-18T17:20:13;2.70;;;1.20;;
19887;SDS011;10106;51.332;12.336;2022-07-18T17:22:40;2.77;;;1.53;;
19887;SDS011;10106;51.332;12.336;2022-07-18T17:25:06;2.70;;;1.40;;
19887;SDS011;10106;51.332;12.336;2022-07-18T17:27:33;1.92;;;1.50;;
19887;SDS011;10106;51.332;12.336;2022-07-18T17:29:59;2.63;;;1.60;;
19887;SDS011;10106;51.332;12.336;2022-07-18T17:32:25;2.67;;;1.40;;
19887;SDS011;10106;51.332;12.336;2022-07-18T17:34:52;1.50;;;1.20;;
19887;SDS011;10106;51.332;12.336;2022-07-18T17:37:19;3.03;;;1.27;;
19887;SDS011;10106;51.332;12.336;2022-07-18T17:39:46;1.90;;;1.40;;
19887;SDS011;10106;51.332;12.336;2022-07-18T17:42:14;14.17;;;7.20;;
19887;SDS011;10106;51.332;12.336;2022-07-18T17:44:41;4.30;;;2.63;;
19887;SDS011;10106;51.332;12.336;2022-07-18T17:47:07;2.30;;;2.10;;
19887;SDS011;10106;51.332;12.336;2022-07-18T17:49:33;2.40;;;1.70;;
19887;SDS011;10106;51.332;12.336;2022-07-18T17:51:59;2.35;;;1.27;;
19887;SDS011;10106;51.332;12.336;2022-07-18T17:54:25;2.37;;;1.80;;
19887;SDS011;10106;51.332;12.336;2022-07-18T17:56:51;1.80;;;1.50;;
19887;SDS011;10106;51.332;12.336;2022-07-18T17:59:17;1.43;;;1.33;;
19887;SDS011;10106;51.332;12.336;2022-07-18T18:01:42;2.47;;;2.27;;
19887;SDS011;10106;51.332;12.336;2022-07-18T18:04:09;2.63;;;1.67;;
19887;SDS011;10106;51.332;12.336;2022-07-18T18:06:35;1.87;;;1.60;;
19887;SDS011;10106;51.332;12.336;2022-07-18T18:09:02;2.00;;;1.80;;
19887;SDS011;10106;51.332;12.336;2022-07-18T18:11:28;1.60;;;1.50;;
19887;SDS011;10106;51.332;12.336;2022-07-18T18:13:56;4.40;;;1.87;;
19887;SDS011;10106;51.332;12.336;2022-07-18T18:16:22;5.37;;;1.50;;
19887;SDS011;10106;51.332;12.336;2022-07-18T18:18:48;10.30;;;2.22;;
19887;SDS011;10106;51.332;12.336;2022-07-18T18:21:13;3.33;;;1.70;;
19887;SDS011;10106;51.332;12.336;2022-07-18T18:23:39;1.50;;;1.40;;
19887;SDS011;10106;51.332;12.336;2022-07-18T19:14:44;12.23;;;6.63;;
19887;SDS011;10106;51.332;12.336;2022-07-18T19:17:10;5.90;;;2.50;;
19887;SDS011;10106;51.332;12.336;2022-07-18T19:19:35;5.03;;;2.60;;
19887;SDS011;10106;51.332;12.336;2022-07-18T19:22:01;4.87;;;2.20;;
